sensor_id;sensor_type;location;lat;lon;timestamp;P1;durP1;ratioP1;P2;durP2;ratioP2
18194;SDS011;9223;50.988;3.162;2022-08-21T00:00:37;5.28;;;2.17;;
18194;SDS011;9223;50.988;3.162;2022-08-21T00:06:44;5.22;;;2.10;;
18194;SDS011;9223;50.988;3.162;2022-08-21T00:12:48;5.80;;;2.60;;
18194;SDS011;9223;50.988;3.162;2022-08-21T00:18:53;4.05;;;2.00;;
18194;SDS011;9223;50.988;3.162;2022-08-21T00:24:57;3.40;;;1.80;;
18194;SDS011;9223;50.988;3.162;2022-08-21T00:31:00;5.88;;;2.35;;
18194;SDS011;9223;50.988;3.162;2022-08-21T00:37:06;4.38;;;2.30;;
18194;SDS011;9223;50.988;3.162;2022-08-21T00:43:11;4.35;;;2.47;;
18194;SDS011;9223;50.988;3.162;2022-08-21T00:49:14;6.78;;;2.42;;
18194;SDS011;9223;50.988;3.162;2022-08-21T00:55:20;6.28;;;2.33;;
18194;SDS011;9223;50.988;3.162;2022-08-21T01:01:24;6.05;;;2.05;;
18194;SDS011;9223;50.988;3.162;2022-08-21T01:07:28;3.97;;;2.00;;
18194;SDS011;9223;50.988;3.162;2022-08-21T01:13:34;3.58;;;2.03;;
18194;SDS011;9223;50.988;3.162;2022-08-21T01:19:41;5.90;;;2.10;;
18194;SDS011;9223;50.988;3.162;2022-08-21T01:25:46;4.35;;;1.92;;
18194;SDS011;9223;50.988;3.162;2022-08-21T01:31:49;5.57;;;2.22;;
18194;SDS011;9223;50.988;3.162;2022-08-21T01:37:53;3.97;;;2.22;;
18194;SDS011;9223;50.988;3.162;2022-08-21T01:43:58;4.35;;;2.30;;
18194;SDS011;9223;50.988;3.162;2022-08-21T01:50:02;6.07;;;2.13;;
18194;SDS011;9223;50.988;3.162;2022-08-21T01:56:07;4.60;;;2.10;;
18194;SDS011;9223;50.988;3.162;2022-08-21T02:02:14;4.03;;;1.85;;
18194;SDS011;9223;50.988;3.162;2022-08-21T02:08:17;4.75;;;2.30;;
18194;SDS011;9223;50.988;3.162;2022-08-21T02:14:24;5.15;;;2.35;;
18194;SDS011;9223;50.988;3.162;2022-08-21T02:20:35;4.22;;;2.08;;
18194;SDS011;9223;50.988;3.162;2022-08-21T02:26:38;4.97;;;2.05;;
18194;SDS011;9223;50.988;3.162;2022-08-21T02:32:42;3.33;;;2.17;;
18194;SDS011;9223;50.988;3.162;2022-08-21T02:38:48;3.80;;;2.15;;
18194;SDS011;9223;50.988;3.162;2022-08-21T02:44:51;4.82;;;2.13;;
18194;SDS011;9223;50.988;3.162;2022-08-21T02:50:56;4.55;;;2.20;;
18194;SDS011;9223;50.988;3.162;2022-08-21T02:57:00;5.10;;;2.17;;
18194;SDS011;9223;50.988;3.162;2022-08-21T03:03:04;5.40;;;2.45;;
18194;SDS011;9223;50.988;3.162;2022-08-21T03:09:08;5.90;;;3.28;;
18194;SDS011;9223;50.988;3.162;2022-08-21T03:15:14;6.05;;;3.13;;
18194;SDS011;9223;50.988;3.162;2022-08-21T03:21:19;4.25;;;2.90;;
18194;SDS011;9223;50.988;3.162;2022-08-21T03:27:22;5.95;;;2.67;;
18194;SDS011;9223;50.988;3.162;2022-08-21T03:33:31;5.85;;;3.42;;
18194;SDS011;9223;50.988;3.162;2022-08-21T03:39:35;6.18;;;2.95;;
18194;SDS011;9223;50.988;3.162;2022-08-21T03:45:38;7.13;;;3.20;;
18194;SDS011;9223;50.988;3.162;2022-08-21T03:51:43;7.68;;;3.25;;
18194;SDS011;9223;50.988;3.162;2022-08-21T03:57:47;6.78;;;3.28;;
18194;SDS011;9223;50.988;3.162;2022-08-21T04:03:50;4.80;;;2.85;;
18194;SDS011;9223;50.988;3.162;2022-08-21T04:09:55;5.80;;;3.10;;
18194;SDS011;9223;50.988;3.162;2022-08-21T04:15:58;7.57;;;3.20;;
18194;SDS011;9223;50.988;3.162;2022-08-21T04:22:02;6.47;;;2.83;;
18194;SDS011;9223;50.988;3.162;2022-08-21T04:28:07;6.22;;;2.70;;
18194;SDS011;9223;50.988;3.162;2022-08-21T04:34:12;7.80;;;2.97;;
18194;SDS011;9223;50.988;3.162;2022-08-21T04:40:16;7.28;;;3.13;;
18194;SDS011;9223;50.988;3.162;2022-08-21T04:46:21;7.35;;;3.60;;
18194;SDS011;9223;50.988;3.162;2022-08-21T04:52:25;7.75;;;3.30;;
18194;SDS011;9223;50.988;3.162;2022-08-21T04:58:28;5.00;;;2.97;;
18194;SDS011;9223;50.988;3.162;2022-08-21T05:04:33;9.93;;;3.60;;
18194;SDS011;9223;50.988;3.162;2022-08-21T05:10:38;7.68;;;3.25;;
18194;SDS011;9223;50.988;3.162;2022-08-21T05:16:41;8.38;;;3.28;;
18194;SDS011;9223;50.988;3.162;2022-08-21T05:22:47;5.47;;;3.17;;
18194;SDS011;9223;50.988;3.162;2022-08-21T05:28:50;5.65;;;3.00;;
18194;SDS011;9223;50.988;3.162;2022-08-21T05:34:54;6.95;;;3.67;;
18194;SDS011;9223;50.988;3.162;2022-08-21T05:40:59;7.43;;;3.47;;
18194;SDS011;9223;50.988;3.162;2022-08-21T05:47:03;6.30;;;3.70;;
18194;SDS011;9223;50.988;3.162;2022-08-21T05:53:07;7.00;;;3.50;;
18194;SDS011;9223;50.988;3.162;2022-08-21T05:59:13;8.15;;;3.72;;
18194;SDS011;9223;50.988;3.162;2022-08-21T06:05:17;8.55;;;4.00;;
18194;SDS011;9223;50.988;3.162;2022-08-21T06:11:37;9.35;;;4.07;;
18194;SDS011;9223;50.988;3.162;2022-08-21T06:17:42;7.40;;;3.90;;
18194;SDS011;9223;50.988;3.162;2022-08-21T06:23:45;6.70;;;3.70;;
18194;SDS011;9223;50.988;3.162;2022-08-21T06:29:48;9.70;;;3.67;;
18194;SDS011;9223;50.988;3.162;2022-08-21T06:35:53;6.70;;;3.00;;
18194;SDS011;9223;50.988;3.162;2022-08-21T06:41:56;8.93;;;3.05;;
18194;SDS011;9223;50.988;3.162;2022-08-21T06:48:01;7.93;;;3.08;;
18194;SDS011;9223;50.988;3.162;2022-08-21T06:54:07;7.75;;;3.30;;
18194;SDS011;9223;50.988;3.162;2022-08-21T07:00:11;6.53;;;2.58;;
18194;SDS011;9223;50.988;3.162;2022-08-21T07:06:15;8.35;;;3.28;;
18194;SDS011;9223;50.988;3.162;2022-08-21T07:12:20;6.53;;;3.20;;
18194;SDS011;9223;50.988;3.162;2022-08-21T07:18:23;8.02;;;2.47;;
18194;SDS011;9223;50.988;3.162;2022-08-21T07:24:27;6.65;;;2.53;;
18194;SDS011;9223;50.988;3.162;2022-08-21T07:30:32;5.75;;;2.20;;
18194;SDS011;9223;50.988;3.162;2022-08-21T07:36:35;8.75;;;2.45;;
18194;SDS011;9223;50.988;3.162;2022-08-21T07:42:39;5.82;;;2.50;;
18194;SDS011;9223;50.988;3.162;2022-08-21T07:48:44;8.25;;;2.42;;
18194;SDS011;9223;50.988;3.162;2022-08-21T07:54:48;6.00;;;2.85;;
18194;SDS011;9223;50.988;3.162;2022-08-21T08:00:53;7.22;;;3.20;;
18194;SDS011;9223;50.988;3.162;2022-08-21T08:06:58;7.05;;;2.53;;
18194;SDS011;9223;50.988;3.162;2022-08-21T08:13:01;3.88;;;1.70;;
18194;SDS011;9223;50.988;3.162;2022-08-21T08:19:10;8.98;;;2.05;;
18194;SDS011;9223;50.988;3.162;2022-08-21T08:25:15;6.70;;;3.55;;
18194;SDS011;9223;50.988;3.162;2022-08-21T08:31:19;7.53;;;2.40;;
18194;SDS011;9223;50.988;3.162;2022-08-21T08:37:23;5.20;;;1.63;;
18194;SDS011;9223;50.988;3.162;2022-08-21T08:43:36;5.05;;;1.90;;
18194;SDS011;9223;50.988;3.162;2022-08-21T08:49:48;6.25;;;1.77;;
18194;SDS011;9223;50.988;3.162;2022-08-21T08:55:52;4.65;;;2.00;;
18194;SDS011;9223;50.988;3.162;2022-08-21T09:01:58;4.97;;;2.25;;
18194;SDS011;9223;50.988;3.162;2022-08-21T09:08:09;7.25;;;1.67;;
18194;SDS011;9223;50.988;3.162;2022-08-21T09:14:22;2.65;;;1.35;;
18194;SDS011;9223;50.988;3.162;2022-08-21T09:20:32;4.63;;;1.58;;
18194;SDS011;9223;50.988;3.162;2022-08-21T09:26:41;5.05;;;1.63;;
18194;SDS011;9223;50.988;3.162;2022-08-21T09:32:47;5.90;;;2.13;;
18194;SDS011;9223;50.988;3.162;2022-08-21T09:38:54;11.23;;;2.55;;
18194;SDS011;9223;50.988;3.162;2022-08-21T09:45:10;6.82;;;2.03;;
18194;SDS011;9223;50.988;3.162;2022-08-21T09:51:16;6.07;;;1.42;;
18194;SDS011;9223;50.988;3.162;2022-08-21T09:57:23;6.22;;;1.85;;
18194;SDS011;9223;50.988;3.162;2022-08-21T10:04:01;6.70;;;2.00;;
18194;SDS011;9223;50.988;3.162;2022-08-21T10:10:06;5.10;;;1.73;;
18194;SDS011;9223;50.988;3.162;2022-08-21T10:16:15;6.18;;;2.13;;
18194;SDS011;9223;50.988;3.162;2022-08-21T10:22:24;8.10;;;2.45;;
18194;SDS011;9223;50.988;3.162;2022-08-21T10:28:32;13.82;;;10.15;;
18194;SDS011;9223;50.988;3.162;2022-08-21T10:34:41;13.43;;;9.52;;
18194;SDS011;9223;50.988;3.162;2022-08-21T10:40:50;25.73;;;15.23;;
18194;SDS011;9223;50.988;3.162;2022-08-21T10:47:00;13.63;;;9.48;;
18194;SDS011;9223;50.988;3.162;2022-08-21T10:53:08;8.48;;;4.18;;
18194;SDS011;9223;50.988;3.162;2022-08-21T10:59:25;11.40;;;4.88;;
18194;SDS011;9223;50.988;3.162;2022-08-21T11:05:31;15.45;;;9.68;;
18194;SDS011;9223;50.988;3.162;2022-08-21T11:11:38;11.70;;;5.60;;
18194;SDS011;9223;50.988;3.162;2022-08-21T11:17:57;8.15;;;5.38;;
18194;SDS011;9223;50.988;3.162;2022-08-21T11:24:03;13.32;;;7.40;;
18194;SDS011;9223;50.988;3.162;2022-08-21T11:30:14;8.18;;;4.53;;
18194;SDS011;9223;50.988;3.162;2022-08-21T11:36:19;10.05;;;4.60;;
18194;SDS011;9223;50.988;3.162;2022-08-21T11:42:28;7.13;;;3.95;;
18194;SDS011;9223;50.988;3.162;2022-08-21T11:48:36;5.50;;;2.10;;
18194;SDS011;9223;50.988;3.162;2022-08-21T11:54:44;6.13;;;1.90;;
18194;SDS011;9223;50.988;3.162;2022-08-21T12:00:50;4.25;;;2.08;;
18194;SDS011;9223;50.988;3.162;2022-08-21T12:06:55;6.07;;;2.22;;
18194;SDS011;9223;50.988;3.162;2022-08-21T12:13:05;3.90;;;1.98;;
18194;SDS011;9223;50.988;3.162;2022-08-21T12:19:10;4.80;;;1.60;;
18194;SDS011;9223;50.988;3.162;2022-08-21T12:25:17;5.55;;;2.00;;
18194;SDS011;9223;50.988;3.162;2022-08-21T12:31:23;7.28;;;2.20;;
18194;SDS011;9223;50.988;3.162;2022-08-21T12:37:30;4.88;;;1.52;;
18194;SDS011;9223;50.988;3.162;2022-08-21T12:43:43;2.97;;;1.30;;
18194;SDS011;9223;50.988;3.162;2022-08-21T12:49:53;7.32;;;3.20;;
18194;SDS011;9223;50.988;3.162;2022-08-21T12:56:01;9.68;;;5.40;;
18194;SDS011;9223;50.988;3.162;2022-08-21T13:02:10;6.22;;;3.80;;
18194;SDS011;9223;50.988;3.162;2022-08-21T13:08:18;8.18;;;3.78;;
18194;SDS011;9223;50.988;3.162;2022-08-21T13:14:25;5.63;;;2.13;;
18194;SDS011;9223;50.988;3.162;2022-08-21T13:20:34;7.15;;;3.03;;
18194;SDS011;9223;50.988;3.162;2022-08-21T13:26:38;4.95;;;2.30;;
18194;SDS011;9223;50.988;3.162;2022-08-21T13:32:43;9.60;;;2.10;;
18194;SDS011;9223;50.988;3.162;2022-08-21T13:38:50;7.38;;;2.28;;
18194;SDS011;9223;50.988;3.162;2022-08-21T13:44:54;4.55;;;2.10;;
18194;SDS011;9223;50.988;3.162;2022-08-21T13:50:58;7.38;;;2.30;;
18194;SDS011;9223;50.988;3.162;2022-08-21T13:57:04;3.42;;;1.90;;
18194;SDS011;9223;50.988;3.162;2022-08-21T14:03:08;7.78;;;2.30;;
18194;SDS011;9223;50.988;3.162;2022-08-21T14:09:13;3.05;;;1.70;;
18194;SDS011;9223;50.988;3.162;2022-08-21T14:15:19;8.77;;;2.45;;
18194;SDS011;9223;50.988;3.162;2022-08-21T14:21:30;4.75;;;2.40;;
18194;SDS011;9223;50.988;3.162;2022-08-21T14:27:35;3.97;;;1.85;;
18194;SDS011;9223;50.988;3.162;2022-08-21T14:33:40;5.70;;;2.28;;
18194;SDS011;9223;50.988;3.162;2022-08-21T14:39:44;5.70;;;1.88;;
18194;SDS011;9223;50.988;3.162;2022-08-21T14:45:48;6.50;;;1.70;;
18194;SDS011;9223;50.988;3.162;2022-08-21T14:51:53;3.88;;;1.60;;
18194;SDS011;9223;50.988;3.162;2022-08-21T14:57:59;7.80;;;2.25;;
18194;SDS011;9223;50.988;3.162;2022-08-21T15:04:06;5.38;;;1.90;;
18194;SDS011;9223;50.988;3.162;2022-08-21T15:10:11;3.50;;;1.65;;
18194;SDS011;9223;50.988;3.162;2022-08-21T15:16:15;8.32;;;2.05;;
18194;SDS011;9223;50.988;3.162;2022-08-21T15:22:18;6.57;;;2.45;;
18194;SDS011;9223;50.988;3.162;2022-08-21T15:28:29;5.18;;;2.20;;
18194;SDS011;9223;50.988;3.162;2022-08-21T15:34:33;7.40;;;2.30;;
18194;SDS011;9223;50.988;3.162;2022-08-21T15:40:36;3.88;;;2.00;;
18194;SDS011;9223;50.988;3.162;2022-08-21T15:46:53;9.43;;;2.80;;
18194;SDS011;9223;50.988;3.162;2022-08-21T15:52:56;4.95;;;2.17;;
18194;SDS011;9223;50.988;3.162;2022-08-21T15:59:02;6.00;;;2.10;;
18194;SDS011;9223;50.988;3.162;2022-08-21T16:05:07;10.10;;;3.50;;
18194;SDS011;9223;50.988;3.162;2022-08-21T16:11:13;7.57;;;2.70;;
18194;SDS011;9223;50.988;3.162;2022-08-21T16:17:17;11.93;;;3.17;;
18194;SDS011;9223;50.988;3.162;2022-08-21T16:23:22;9.23;;;3.13;;
18194;SDS011;9223;50.988;3.162;2022-08-21T16:29:25;8.15;;;2.97;;
18194;SDS011;9223;50.988;3.162;2022-08-21T16:35:32;10.15;;;3.42;;
18194;SDS011;9223;50.988;3.162;2022-08-21T16:41:37;8.38;;;3.03;;
18194;SDS011;9223;50.988;3.162;2022-08-21T16:47:40;8.73;;;3.30;;
18194;SDS011;9223;50.988;3.162;2022-08-21T16:53:44;8.02;;;2.83;;
18194;SDS011;9223;50.988;3.162;2022-08-21T16:59:49;6.88;;;2.78;;
18194;SDS011;9223;50.988;3.162;2022-08-21T17:05:53;6.40;;;3.00;;
18194;SDS011;9223;50.988;3.162;2022-08-21T17:11:56;10.95;;;3.10;;
18194;SDS011;9223;50.988;3.162;2022-08-21T17:18:02;8.95;;;3.42;;
18194;SDS011;9223;50.988;3.162;2022-08-21T17:24:06;9.35;;;3.38;;
18194;SDS011;9223;50.988;3.162;2022-08-21T17:30:10;8.10;;;2.88;;
18194;SDS011;9223;50.988;3.162;2022-08-21T17:36:16;6.80;;;2.55;;
18194;SDS011;9223;50.988;3.162;2022-08-21T17:42:20;13.23;;;3.78;;
18194;SDS011;9223;50.988;3.162;2022-08-21T17:48:24;8.95;;;3.03;;
18194;SDS011;9223;50.988;3.162;2022-08-21T17:54:28;6.03;;;2.85;;
18194;SDS011;9223;50.988;3.162;2022-08-21T18:00:32;6.20;;;2.60;;
18194;SDS011;9223;50.988;3.162;2022-08-21T18:06:36;9.52;;;3.08;;
18194;SDS011;9223;50.988;3.162;2022-08-21T18:12:41;9.77;;;2.95;;
18194;SDS011;9223;50.988;3.162;2022-08-21T18:18:46;8.98;;;3.22;;
18194;SDS011;9223;50.988;3.162;2022-08-21T18:24:51;8.23;;;3.35;;
18194;SDS011;9223;50.988;3.162;2022-08-21T18:30:56;9.23;;;3.40;;
18194;SDS011;9223;50.988;3.162;2022-08-21T18:37:00;5.25;;;2.70;;
18194;SDS011;9223;50.988;3.162;2022-08-21T18:43:04;8.93;;;3.30;;
18194;SDS011;9223;50.988;3.162;2022-08-21T18:49:17;8.35;;;3.45;;
18194;SDS011;9223;50.988;3.162;2022-08-21T18:55:22;9.15;;;3.40;;
18194;SDS011;9223;50.988;3.162;2022-08-21T19:01:27;9.40;;;3.85;;
18194;SDS011;9223;50.988;3.162;2022-08-21T19:07:32;6.72;;;3.50;;
18194;SDS011;9223;50.988;3.162;2022-08-21T19:13:35;6.63;;;3.28;;
18194;SDS011;9223;50.988;3.162;2022-08-21T19:19:40;9.00;;;4.30;;
18194;SDS011;9223;50.988;3.162;2022-08-21T19:25:46;7.10;;;3.40;;
18194;SDS011;9223;50.988;3.162;2022-08-21T19:32:10;8.77;;;3.60;;
18194;SDS011;9223;50.988;3.162;2022-08-21T19:38:14;8.25;;;4.43;;
18194;SDS011;9223;50.988;3.162;2022-08-21T19:44:20;7.72;;;3.78;;
18194;SDS011;9223;50.988;3.162;2022-08-21T19:50:25;7.38;;;4.10;;
18194;SDS011;9223;50.988;3.162;2022-08-21T19:56:29;6.45;;;3.72;;
18194;SDS011;9223;50.988;3.162;2022-08-21T20:02:35;7.97;;;4.22;;
18194;SDS011;9223;50.988;3.162;2022-08-21T20:08:48;7.97;;;4.00;;
18194;SDS011;9223;50.988;3.162;2022-08-21T20:14:52;8.55;;;3.50;;
18194;SDS011;9223;50.988;3.162;2022-08-21T20:20:57;10.80;;;3.95;;
18194;SDS011;9223;50.988;3.162;2022-08-21T20:27:01;9.02;;;4.53;;
18194;SDS011;9223;50.988;3.162;2022-08-21T20:33:06;11.20;;;5.13;;
18194;SDS011;9223;50.988;3.162;2022-08-21T20:39:11;9.30;;;5.97;;
18194;SDS011;9223;50.988;3.162;2022-08-21T20:45:16;10.25;;;5.53;;
18194;SDS011;9223;50.988;3.162;2022-08-21T20:51:22;8.63;;;5.07;;
18194;SDS011;9223;50.988;3.162;2022-08-21T20:57:30;11.55;;;5.30;;
18194;SDS011;9223;50.988;3.162;2022-08-21T21:03:35;10.63;;;5.43;;
18194;SDS011;9223;50.988;3.162;2022-08-21T21:09:43;12.93;;;6.25;;
18194;SDS011;9223;50.988;3.162;2022-08-21T21:15:50;9.18;;;5.85;;
18194;SDS011;9223;50.988;3.162;2022-08-21T21:21:59;13.02;;;6.25;;
18194;SDS011;9223;50.988;3.162;2022-08-21T21:28:05;13.55;;;6.25;;
18194;SDS011;9223;50.988;3.162;2022-08-21T21:34:15;14.98;;;6.53;;
18194;SDS011;9223;50.988;3.162;2022-08-21T21:40:24;12.13;;;7.22;;
18194;SDS011;9223;50.988;3.162;2022-08-21T21:46:33;17.25;;;6.03;;
18194;SDS011;9223;50.988;3.162;2022-08-21T21:52:43;13.50;;;6.65;;
18194;SDS011;9223;50.988;3.162;2022-08-21T21:59:03;10.23;;;6.85;;
18194;SDS011;9223;50.988;3.162;2022-08-21T22:05:14;16.42;;;6.97;;
18194;SDS011;9223;50.988;3.162;2022-08-21T22:11:24;12.93;;;6.90;;
18194;SDS011;9223;50.988;3.162;2022-08-21T22:17:35;11.38;;;7.13;;
18194;SDS011;9223;50.988;3.162;2022-08-21T22:23:43;10.90;;;6.63;;
18194;SDS011;9223;50.988;3.162;2022-08-21T22:29:50;15.20;;;7.30;;
18194;SDS011;9223;50.988;3.162;2022-08-21T22:35:55;13.27;;;7.22;;
18194;SDS011;9223;50.988;3.162;2022-08-21T22:42:04;13.05;;;7.30;;
18194;SDS011;9223;50.988;3.162;2022-08-21T22:48:12;15.27;;;7.65;;
18194;SDS011;9223;50.988;3.162;2022-08-21T22:54:25;13.50;;;7.50;;
18194;SDS011;9223;50.988;3.162;2022-08-21T23:00:40;14.45;;;7.95;;
18194;SDS011;9223;50.988;3.162;2022-08-21T23:06:47;17.30;;;8.32;;
18194;SDS011;9223;50.988;3.162;2022-08-21T23:12:54;12.48;;;8.32;;
18194;SDS011;9223;50.988;3.162;2022-08-21T23:19:02;11.95;;;7.70;;
18194;SDS011;9223;50.988;3.162;2022-08-21T23:25:12;15.60;;;7.60;;
18194;SDS011;9223;50.988;3.162;2022-08-21T23:31:21;10.15;;;7.32;;
18194;SDS011;9223;50.988;3.162;2022-08-21T23:37:30;11.30;;;7.60;;
18194;SDS011;9223;50.988;3.162;2022-08-21T23:44:14;11.20;;;7.35;;
18194;SDS011;9223;50.988;3.162;2022-08-21T23:50:28;16.80;;;8.10;;
18194;SDS011;9223;50.988;3.162;2022-08-21T23:56:40;13.48;;;7.90;;
